createdAt,value
2019-01-13T00:00:00.258Z,98796.39
2019-01-13T00:02:27.200Z,98795.45
2019-01-13T00:04:54.400Z,98792.05
2019-01-13T00:07:21.642Z,98792.20
2019-01-13T00:09:48.926Z,98792.66
2019-01-13T00:12:16.160Z,98801.09
2019-01-13T00:14:43.411Z,98787.77
2019-01-13T00:17:10.651Z,98802.92
2019-01-13T00:19:37.533Z,98792.88
2019-01-13T00:22:04.766Z,98785.31
2019-01-13T00:24:32.017Z,98795.61
2019-01-13T00:26:59.270Z,98787.08
2019-01-13T00:29:26.149Z,98800.41
2019-01-13T00:31:53.094Z,98791.76
2019-01-13T00:34:20.344Z,98798.23
2019-01-13T00:36:47.303Z,98792.11
2019-01-13T00:39:14.276Z,98788.08
2019-01-13T00:41:41.469Z,98792.92
2019-01-13T00:44:08.813Z,98793.59
2019-01-13T00:46:36.054Z,98790.33
2019-01-13T00:49:02.961Z,98797.88
2019-01-13T00:51:29.929Z,98787.98
2019-01-13T00:53:57.207Z,98787.95
2019-01-13T00:56:24.073Z,98780.48
2019-01-13T00:58:50.945Z,98784.43
2019-01-13T01:01:18.138Z,98787.02
2019-01-13T01:03:45.030Z,98782.81
2019-01-13T01:06:12.007Z,98792.80
2019-01-13T01:08:39.282Z,98792.08
2019-01-13T01:11:06.231Z,98778.25
2019-01-13T01:13:33.137Z,98774.43
2019-01-13T01:16:00.445Z,98777.73
2019-01-13T01:18:27.692Z,98776.41
2019-01-13T01:20:55.056Z,98784.36
2019-01-13T01:23:23.210Z,98778.47
2019-01-13T01:25:50.094Z,98771.46
2019-01-13T01:28:16.984Z,98766.48
2019-01-13T01:30:44.367Z,98768.63
2019-01-13T01:33:11.586Z,98763.81
2019-01-13T01:35:38.464Z,98763.34
2019-01-13T01:38:05.724Z,98755.03
2019-01-13T01:40:32.630Z,98749.25
2019-01-13T01:42:59.592Z,98749.74
2019-01-13T01:45:26.560Z,98752.20
2019-01-13T01:47:53.813Z,98750.02
2019-01-13T01:50:20.789Z,98757.45
2019-01-13T01:52:48.001Z,98755.05
2019-01-13T01:55:14.913Z,98747.04
2019-01-13T01:57:41.848Z,98749.02
2019-01-13T02:00:08.744Z,98746.97
2019-01-13T02:02:35.894Z,98749.53
2019-01-13T02:05:02.808Z,98747.80
2019-01-13T02:07:30.038Z,98747.99
2019-01-13T02:09:57.962Z,98754.00
2019-01-13T02:12:25.522Z,98751.68
2019-01-13T02:14:52.957Z,98752.31
2019-01-13T02:17:20.188Z,98754.42
2019-01-13T02:19:47.565Z,98764.13
2019-01-13T02:22:14.437Z,98761.92
2019-01-13T02:24:41.388Z,98762.62
2019-01-13T02:27:08.300Z,98752.60
2019-01-13T02:29:35.261Z,98759.27
2019-01-13T02:32:02.216Z,98755.71
2019-01-13T02:34:29.170Z,98750.11
2019-01-13T02:36:56.393Z,98741.98
2019-01-13T02:39:23.296Z,98748.85
2019-01-13T02:41:50.195Z,98749.25
2019-01-13T02:44:17.166Z,98750.97
2019-01-13T02:46:44.103Z,98745.00
2019-01-13T02:49:11.002Z,98740.44
2019-01-13T02:51:38.278Z,98740.80
2019-01-13T02:54:05.171Z,98738.45
2019-01-13T02:56:32.397Z,98740.58
2019-01-13T02:58:59.340Z,98733.13
2019-01-13T03:01:26.302Z,98744.98
2019-01-13T03:03:53.642Z,98752.45
2019-01-13T03:06:20.619Z,98739.16
2019-01-13T03:08:47.594Z,98736.66
2019-01-13T03:11:14.548Z,98736.18
2019-01-13T03:13:41.482Z,98736.50
2019-01-13T03:16:08.377Z,98734.17
2019-01-13T03:18:36.218Z,98734.45
2019-01-13T03:21:04.202Z,98734.17
2019-01-13T03:23:31.150Z,98716.05
2019-01-13T03:25:58.372Z,98722.77
2019-01-13T03:28:25.632Z,98720.05
2019-01-13T03:30:52.570Z,98730.42
2019-01-13T03:33:19.540Z,98721.11
2019-01-13T03:35:46.757Z,98719.42
2019-01-13T03:38:13.725Z,98724.47
2019-01-13T03:40:40.674Z,98729.08
2019-01-13T03:43:07.838Z,98735.37
2019-01-13T03:45:34.763Z,98734.84
2019-01-13T03:48:01.717Z,98730.06
2019-01-13T03:50:28.653Z,98722.67
2019-01-13T03:52:55.633Z,98729.83
2019-01-13T03:55:22.570Z,98726.78
2019-01-13T03:57:49.720Z,98731.05
2019-01-13T04:00:16.628Z,98732.34
2019-01-13T04:02:43.597Z,98723.47
2019-01-13T04:05:10.789Z,98722.67
2019-01-13T04:07:37.670Z,98715.55
2019-01-13T04:10:05.710Z,98712.99
2019-01-13T04:12:32.676Z,98713.55
2019-01-13T04:14:59.900Z,98712.37
2019-01-13T04:17:27.088Z,98706.33
2019-01-13T04:19:54.025Z,98713.94
2019-01-13T04:22:21.174Z,98704.63
2019-01-13T04:24:48.064Z,98710.00
2019-01-13T04:27:15.044Z,98719.15
2019-01-13T04:29:41.908Z,98718.68
2019-01-13T04:32:08.827Z,98720.37
2019-01-13T04:34:36.022Z,98716.25
2019-01-13T04:37:02.917Z,98709.54
2019-01-13T04:39:29.809Z,98720.77
2019-01-13T04:41:56.777Z,98713.84
2019-01-13T04:44:23.751Z,98716.05
2019-01-13T04:46:50.926Z,98713.97
2019-01-13T04:49:18.098Z,98712.27
2019-01-13T04:51:45.044Z,98701.88
2019-01-13T04:54:12.277Z,98696.77
2019-01-13T04:56:40.255Z,98692.33
2019-01-13T04:59:07.214Z,98693.42
2019-01-13T05:01:36.541Z,98694.73
2019-01-13T05:04:02.944Z,98693.88
2019-01-13T05:06:30.227Z,98696.21
2019-01-13T05:08:57.426Z,98693.44
2019-01-13T05:11:24.298Z,98703.99
2019-01-13T05:13:51.594Z,98690.92
2019-01-13T05:16:18.545Z,98691.08
2019-01-13T05:18:45.496Z,98688.52
2019-01-13T05:21:14.084Z,98687.23
2019-01-13T05:23:41.094Z,98688.69
2019-01-13T05:26:08.302Z,98697.58
2019-01-13T05:28:35.198Z,98699.66
2019-01-13T05:31:02.412Z,98688.36
2019-01-13T05:33:29.701Z,98695.55
2019-01-13T05:35:56.662Z,98694.04
2019-01-13T05:38:23.621Z,98693.84
2019-01-13T05:40:50.557Z,98688.91
2019-01-13T05:43:17.481Z,98690.01
2019-01-13T05:45:44.732Z,98693.02
2019-01-13T05:48:11.974Z,98690.01
2019-01-13T05:50:39.231Z,98692.06
2019-01-13T05:53:06.482Z,98693.32
2019-01-13T05:55:33.938Z,98685.81
2019-01-13T05:58:01.210Z,98681.17
2019-01-13T06:00:28.097Z,98684.22
2019-01-13T06:02:55.341Z,98693.39
2019-01-13T06:05:23.669Z,98685.13
2019-01-13T06:07:50.698Z,98680.63
2019-01-13T06:10:17.951Z,98680.20
2019-01-13T06:12:44.928Z,98681.75
2019-01-13T06:15:11.909Z,98679.30
2019-01-13T06:17:39.222Z,98681.84
2019-01-13T06:20:06.467Z,98686.23
2019-01-13T06:22:33.372Z,98681.66
2019-01-13T06:25:00.361Z,98688.17
2019-01-13T06:27:27.556Z,98676.72
2019-01-13T06:29:54.714Z,98682.70
2019-01-13T06:32:21.914Z,98681.34
2019-01-13T06:37:26.665Z,98673.39
2019-01-13T06:39:53.665Z,98681.63
2019-01-13T06:42:20.529Z,98682.72
2019-01-13T06:44:47.493Z,98675.20
2019-01-13T06:47:14.391Z,98672.23
2019-01-13T06:49:41.360Z,98666.73
2019-01-13T06:52:08.363Z,98671.62
2019-01-13T06:54:35.547Z,98673.26
2019-01-13T06:57:02.689Z,98677.02
2019-01-13T06:59:29.583Z,98676.78
2019-01-13T07:02:03.203Z,98680.05
2019-01-13T07:04:25.466Z,98674.14
2019-01-13T07:06:52.437Z,98676.34
2019-01-13T07:09:19.679Z,98668.94
2019-01-13T07:11:46.888Z,98678.26
2019-01-13T07:14:14.089Z,98673.89
2019-01-13T07:16:40.950Z,98662.69
2019-01-13T07:19:07.862Z,98671.58
2019-01-13T07:21:34.832Z,98661.54
2019-01-13T07:24:01.813Z,98660.34
2019-01-13T07:26:29.008Z,98659.50
2019-01-13T07:28:55.925Z,98660.33
2019-01-13T07:31:23.163Z,98649.46
2019-01-13T07:33:52.057Z,98655.77
2019-01-13T07:36:19.318Z,98648.72
2019-01-13T07:38:46.799Z,98640.68
2019-01-13T07:41:13.689Z,98638.20
2019-01-13T07:43:40.858Z,98643.39
2019-01-13T07:46:08.412Z,98629.25
2019-01-13T07:48:35.357Z,98632.17
2019-01-13T07:51:02.498Z,98633.47
2019-01-13T07:53:29.364Z,98635.20
2019-01-13T07:55:56.626Z,98630.27
2019-01-13T07:58:23.553Z,98628.42
2019-01-13T08:00:50.730Z,98614.25
2019-01-13T08:03:17.681Z,98619.44
2019-01-13T08:05:44.986Z,98619.64
2019-01-13T08:08:12.229Z,98616.92
2019-01-13T08:10:39.476Z,98620.16
2019-01-13T08:13:06.391Z,98607.41
2019-01-13T08:15:33.705Z,98615.38
2019-01-13T08:18:00.961Z,98605.16
2019-01-13T08:20:28.207Z,98599.18
2019-01-13T08:22:55.165Z,98600.48
2019-01-13T08:25:22.516Z,98602.86
2019-01-13T08:27:49.475Z,98585.09
2019-01-13T08:30:16.709Z,98580.63
2019-01-13T08:32:43.649Z,98587.08
2019-01-13T08:35:10.549Z,98593.00
2019-01-13T08:37:37.499Z,98605.77
2019-01-13T08:40:04.812Z,98586.91
2019-01-13T08:42:32.050Z,98574.03
2019-01-13T08:44:58.939Z,98571.86
2019-01-13T08:47:25.829Z,98558.43
2019-01-13T08:49:53.097Z,98549.53
2019-01-13T08:52:20.553Z,98553.66
2019-01-13T08:54:47.474Z,98541.49
2019-01-13T08:57:14.770Z,98543.41
2019-01-13T08:59:42.394Z,98535.73
2019-01-13T09:02:09.451Z,98534.23
2019-01-13T09:04:36.677Z,98536.16
2019-01-13T09:07:03.908Z,98527.19
2019-01-13T09:09:30.831Z,98529.59
2019-01-13T09:11:58.174Z,98518.41
2019-01-13T09:14:25.133Z,98511.92
2019-01-13T09:16:52.382Z,98515.00
2019-01-13T09:19:19.333Z,98508.38
2019-01-13T09:21:46.285Z,98501.34
2019-01-13T09:24:13.515Z,98502.52
2019-01-13T09:26:40.469Z,98492.48
2019-01-13T09:29:07.727Z,98488.83
2019-01-13T09:31:34.705Z,98483.63
2019-01-13T09:34:02.055Z,98471.57
2019-01-13T09:36:29.005Z,98466.69
2019-01-13T09:38:56.134Z,98467.80
2019-01-13T09:41:23.448Z,98465.90
2019-01-13T09:43:51.359Z,98464.16
2019-01-13T09:46:18.315Z,98454.49
2019-01-13T09:48:46.300Z,98447.26
2019-01-13T09:51:13.688Z,98432.20
2019-01-13T09:53:48.540Z,98429.59
2019-01-13T09:56:15.739Z,98421.54
2019-01-13T09:58:42.685Z,98424.97
2019-01-13T10:01:10.178Z,98413.06
2019-01-13T10:03:37.254Z,98419.22
2019-01-13T10:06:04.512Z,98418.58
2019-01-13T10:08:31.596Z,98408.44
2019-01-13T10:11:01.303Z,98402.69
2019-01-13T10:13:28.237Z,98403.53
2019-01-13T10:15:55.206Z,98388.70
2019-01-13T10:18:22.497Z,98403.98
2019-01-13T10:20:49.417Z,98386.44
2019-01-13T10:23:16.671Z,98387.70
2019-01-13T10:25:43.939Z,98384.56
2019-01-13T10:28:10.823Z,98385.13
2019-01-13T10:30:38.081Z,98363.02
2019-01-13T10:33:04.979Z,98359.93
2019-01-13T10:35:32.362Z,98348.42
2019-01-13T10:37:59.409Z,98346.03
2019-01-13T10:40:27.599Z,98342.86
2019-01-13T10:42:54.650Z,98338.26
2019-01-13T10:45:21.818Z,98327.88
2019-01-13T10:47:50.120Z,98326.52
2019-01-13T10:53:07.428Z,98315.67
2019-01-13T10:55:34.710Z,98308.69
2019-01-13T10:58:01.676Z,98300.19
2019-01-13T11:00:28.625Z,98292.05
2019-01-13T11:03:02.074Z,98293.69
2019-01-13T11:05:24.345Z,98292.88
2019-01-13T11:07:51.335Z,98279.07
2019-01-13T11:10:18.515Z,98268.66
2019-01-13T11:12:45.473Z,98265.53
2019-01-13T11:15:13.405Z,98260.64
2019-01-13T11:17:40.726Z,98234.36
2019-01-13T11:20:08.102Z,98230.15
2019-01-13T11:22:35.444Z,98216.75
2019-01-13T11:25:02.409Z,98209.83
2019-01-13T11:27:30.764Z,98201.31
2019-01-13T11:32:39.482Z,98185.20
2019-01-13T11:35:06.864Z,98183.43
2019-01-13T11:37:34.114Z,98175.77
2019-01-13T11:40:01.371Z,98158.77
2019-01-13T11:42:28.829Z,98166.33
2019-01-13T11:44:55.763Z,98151.09
2019-01-13T11:47:24.048Z,98154.34
2019-01-13T11:49:51.059Z,98139.17
2019-01-13T11:52:17.930Z,98142.03
2019-01-13T11:54:45.290Z,98119.69
2019-01-13T11:57:12.220Z,98123.96
2019-01-13T11:59:39.560Z,98109.81
2019-01-13T12:02:07.268Z,98093.69
2019-01-13T12:04:34.239Z,98091.02
2019-01-13T12:07:02.321Z,98098.44
2019-01-13T12:09:29.691Z,98073.47
2019-01-13T12:11:56.993Z,98077.70
2019-01-13T12:14:24.060Z,98075.13
2019-01-13T12:16:50.997Z,98072.42
2019-01-13T12:19:18.229Z,98063.58
2019-01-13T12:21:45.164Z,98048.98
2019-01-13T12:24:12.144Z,98050.45
2019-01-13T12:26:39.481Z,98041.53
2019-01-13T12:29:06.743Z,98032.66
2019-01-13T12:31:34.097Z,98012.73
2019-01-13T12:34:01.448Z,98011.28
2019-01-13T12:36:28.392Z,98003.88
2019-01-13T12:38:55.267Z,97985.33
2019-01-13T12:41:22.590Z,97986.84
2019-01-13T12:43:49.582Z,97975.71
2019-01-13T12:46:16.557Z,97960.89
2019-01-13T12:48:43.534Z,97937.93
2019-01-13T12:51:24.453Z,97946.80
2019-01-13T12:53:51.348Z,97928.63
2019-01-13T12:56:18.383Z,97912.34
2019-01-13T12:58:45.646Z,97901.67
2019-01-13T13:01:12.577Z,97893.23
2019-01-13T13:03:39.462Z,97886.48
2019-01-13T13:06:08.070Z,97892.48
2019-01-13T13:08:35.309Z,97870.55
2019-01-13T13:11:03.407Z,97862.65
2019-01-13T13:13:30.573Z,97855.47
2019-01-13T13:15:57.807Z,97836.03
2019-01-13T13:18:25.085Z,97841.20
2019-01-13T13:20:52.013Z,97831.45
2019-01-13T13:23:19.427Z,97824.47
2019-01-13T13:25:46.528Z,97806.31
2019-01-13T13:28:13.543Z,97818.56
2019-01-13T13:30:40.665Z,97805.29
2019-01-13T13:33:07.821Z,97801.78
2019-01-13T13:35:39.602Z,97795.81
2019-01-13T13:38:03.965Z,97793.04
2019-01-13T13:40:31.295Z,97780.23
2019-01-13T13:42:58.471Z,97782.60
2019-01-13T13:45:25.415Z,97764.45
2019-01-13T13:47:52.668Z,97744.62
2019-01-13T13:50:19.650Z,97732.36
2019-01-13T13:52:46.893Z,97749.66
2019-01-13T13:55:14.227Z,97736.20
2019-01-13T13:57:45.008Z,97722.78
2019-01-13T14:00:12.212Z,97734.71
2019-01-13T14:02:39.331Z,97715.00
2019-01-13T14:05:06.638Z,97723.47
2019-01-13T14:07:33.504Z,97711.93
2019-01-13T14:10:02.194Z,97715.45
2019-01-13T14:12:29.515Z,97729.66
2019-01-13T14:14:56.476Z,97722.19
2019-01-13T14:17:23.866Z,97718.69
2019-01-13T14:19:50.742Z,97711.93
2019-01-13T14:22:17.698Z,97713.57
2019-01-13T14:24:44.891Z,97716.52
2019-01-13T14:27:13.097Z,97705.51
2019-01-13T14:29:40.599Z,97696.91
2019-01-13T14:32:07.551Z,97696.41
2019-01-13T14:34:35.984Z,97692.22
2019-01-13T14:37:03.325Z,97694.14
2019-01-13T14:39:30.771Z,97686.65
2019-01-13T14:41:58.436Z,97674.39
2019-01-13T14:44:25.498Z,97670.91
2019-01-13T14:46:53.784Z,97676.07
2019-01-13T14:49:20.973Z,97669.37
2019-01-13T14:51:48.006Z,97655.50
2019-01-13T14:54:15.085Z,97661.39
2019-01-13T14:56:42.396Z,97651.30
2019-01-13T14:59:10.855Z,97636.94
2019-01-13T15:03:24.545Z,97651.36
2019-01-13T15:05:51.516Z,97652.81
2019-01-13T15:08:18.594Z,97641.98
2019-01-13T15:10:45.889Z,97639.80
2019-01-13T15:13:16.423Z,97661.41
2019-01-13T15:15:46.370Z,97649.57
2019-01-13T15:18:13.814Z,97650.44
2019-01-13T15:20:40.800Z,97646.08
2019-01-13T15:23:07.769Z,97644.09
2019-01-13T15:25:34.753Z,97646.06
2019-01-13T15:28:01.904Z,97644.69
2019-01-13T15:30:28.860Z,97641.89
2019-01-13T15:32:56.172Z,97645.93
2019-01-13T15:35:23.663Z,97647.67
2019-01-13T15:37:50.711Z,97642.89
2019-01-13T15:40:17.671Z,97630.20
2019-01-13T15:42:45.103Z,97638.25
2019-01-13T15:45:12.226Z,97622.63
2019-01-13T15:47:39.477Z,97621.94
2019-01-13T15:50:06.509Z,97619.16
2019-01-13T15:52:33.783Z,97618.09
2019-01-13T15:55:00.770Z,97620.73
2019-01-13T15:57:27.742Z,97610.75
2019-01-13T15:59:55.055Z,97599.02
2019-01-13T16:02:22.032Z,97604.11
2019-01-13T16:04:49.316Z,97587.72
2019-01-13T16:07:16.387Z,97572.88
2019-01-13T16:09:43.653Z,97562.80
2019-01-13T16:12:12.248Z,97554.66
2019-01-13T16:14:41.163Z,97545.06
2019-01-13T16:17:12.646Z,97559.44
2019-01-13T16:19:40.731Z,97566.31
2019-01-13T16:22:07.915Z,97567.44
2019-01-13T16:24:36.512Z,97564.87
2019-01-13T16:27:04.201Z,97567.73
2019-01-13T16:29:32.570Z,97545.48
2019-01-13T16:32:01.607Z,97535.48
2019-01-13T16:34:29.379Z,97535.11
2019-01-13T16:36:59.378Z,97554.77
2019-01-13T16:39:28.029Z,97536.20
2019-01-13T16:41:55.176Z,97535.30
2019-01-13T16:44:22.701Z,97510.94
2019-01-13T16:46:51.669Z,97509.52
2019-01-13T16:49:19.134Z,97506.53
2019-01-13T16:51:46.215Z,97495.66
2019-01-13T16:54:13.397Z,97471.78
2019-01-13T16:56:41.686Z,97461.17
2019-01-13T16:59:11.597Z,97476.08
2019-01-13T17:01:40.865Z,97472.34
2019-01-13T17:04:08.422Z,97447.15
2019-01-13T17:06:35.718Z,97464.30
2019-01-13T17:09:02.882Z,97453.32
2019-01-13T17:11:31.377Z,97449.64
2019-01-13T17:14:01.476Z,97439.31
2019-01-13T17:16:28.725Z,97442.94
2019-01-13T17:18:56.085Z,97432.92
2019-01-13T17:21:23.631Z,97435.12
2019-01-13T17:23:54.698Z,97435.73
2019-01-13T17:26:22.120Z,97436.97
2019-01-13T17:28:51.895Z,97421.17
2019-01-13T17:31:19.475Z,97425.11
2019-01-13T17:33:46.805Z,97410.75
2019-01-13T17:36:18.831Z,97412.80
2019-01-13T17:38:46.793Z,97412.85
2019-01-13T17:41:14.087Z,97398.32
2019-01-13T17:43:41.836Z,97386.28
2019-01-13T17:46:09.765Z,97383.58
2019-01-13T17:48:37.845Z,97382.59
2019-01-13T17:51:05.465Z,97384.20
2019-01-13T17:53:37.634Z,97379.83
2019-01-13T17:56:05.722Z,97367.49
2019-01-13T17:58:46.662Z,97366.17
2019-01-13T18:01:27.107Z,97356.47
2019-01-13T18:03:55.604Z,97354.93
2019-01-13T18:06:22.573Z,97344.70
2019-01-13T18:08:49.846Z,97351.44
2019-01-13T18:11:16.841Z,97344.85
2019-01-13T18:13:44.226Z,97334.25
2019-01-13T18:16:11.520Z,97337.95
2019-01-13T18:18:38.537Z,97321.25
2019-01-13T18:21:05.690Z,97324.89
2019-01-13T18:23:32.676Z,97318.63
2019-01-13T18:26:01.655Z,97320.84
2019-01-13T18:28:28.964Z,97323.30
2019-01-13T18:30:55.983Z,97320.72
2019-01-13T18:33:22.981Z,97307.95
2019-01-13T18:35:51.956Z,97305.40
2019-01-13T18:38:19.091Z,97297.36
2019-01-13T18:40:46.489Z,97300.88
2019-01-13T18:43:16.428Z,97288.64
2019-01-13T18:45:43.605Z,97291.81
2019-01-13T18:48:10.870Z,97290.00
2019-01-13T18:50:37.884Z,97293.17
2019-01-13T18:53:05.168Z,97289.52
2019-01-13T18:55:32.607Z,97290.64
2019-01-13T18:58:00.005Z,97279.80
2019-01-13T19:00:27.477Z,97288.42
2019-01-13T19:02:55.702Z,97290.45
2019-01-13T19:05:22.710Z,97284.89
2019-01-13T19:07:49.636Z,97277.58
2019-01-13T19:10:21.574Z,97276.48
2019-01-13T19:12:45.745Z,97259.88
2019-01-13T19:15:13.021Z,97263.47
2019-01-13T19:17:40.059Z,97260.55
2019-01-13T19:20:07.023Z,97254.06
2019-01-13T19:22:35.946Z,97252.86
2019-01-13T19:25:03.067Z,97242.61
2019-01-13T19:27:30.532Z,97235.69
2019-01-13T19:29:57.786Z,97223.52
2019-01-13T19:32:24.791Z,97225.27
2019-01-13T19:34:52.264Z,97236.48
2019-01-13T19:37:19.338Z,97246.47
2019-01-13T19:39:46.333Z,97234.14
2019-01-13T19:42:13.338Z,97241.45
2019-01-13T19:44:41.010Z,97225.56
2019-01-13T19:47:08.423Z,97216.14
2019-01-13T19:49:35.854Z,97205.38
2019-01-13T19:52:02.816Z,97216.40
2019-01-13T19:54:29.773Z,97208.88
2019-01-13T19:56:57.151Z,97220.16
2019-01-13T19:59:24.141Z,97232.30
2019-01-13T20:01:51.526Z,97272.95
2019-01-13T20:04:18.780Z,97232.41
2019-01-13T20:06:45.765Z,97287.67
2019-01-13T20:09:13.207Z,97293.88
2019-01-13T20:11:40.345Z,97292.03
2019-01-13T20:14:07.384Z,97297.59
2019-01-13T20:16:34.812Z,97323.22
2019-01-13T20:19:02.179Z,97302.53
2019-01-13T20:21:30.090Z,97316.42
2019-01-13T20:23:57.084Z,97321.80
2019-01-13T20:26:24.774Z,97334.84
2019-01-13T20:28:51.843Z,97341.40
2019-01-13T20:31:18.965Z,97355.56
2019-01-13T20:33:46.563Z,97344.02
2019-01-13T20:36:13.671Z,97355.30
2019-01-13T20:38:40.652Z,97364.05
2019-01-13T20:41:07.567Z,97375.63
2019-01-13T20:43:34.946Z,97380.72
2019-01-13T20:46:03.301Z,97361.77
2019-01-13T20:48:30.560Z,97365.09
2019-01-13T20:50:57.540Z,97374.28
2019-01-13T20:53:25.266Z,97381.00
2019-01-13T20:55:52.348Z,97359.40
2019-01-13T20:58:19.806Z,97367.16
2019-01-13T21:00:47.148Z,97366.75
2019-01-13T21:03:14.583Z,97365.03
2019-01-13T21:05:41.836Z,97371.23
2019-01-13T21:08:08.794Z,97365.55
2019-01-13T21:10:35.797Z,97377.33
2019-01-13T21:13:02.746Z,97378.66
2019-01-13T21:15:29.710Z,97372.05
2019-01-13T21:17:57.706Z,97378.56
2019-01-13T21:20:26.047Z,97374.16
2019-01-13T21:22:53.314Z,97376.70
2019-01-13T21:25:20.322Z,97378.98
2019-01-13T21:27:47.629Z,97384.33
2019-01-13T21:30:14.544Z,97394.37
2019-01-13T21:32:41.813Z,97384.66
2019-01-13T21:35:08.691Z,97379.11
2019-01-13T21:37:35.636Z,97370.66
2019-01-13T21:40:02.962Z,97375.51
2019-01-13T21:42:31.490Z,97376.72
2019-01-13T21:44:58.522Z,97388.56
2019-01-13T21:47:25.742Z,97382.73
2019-01-13T21:49:52.996Z,97387.22
2019-01-13T21:52:20.250Z,97378.19
2019-01-13T21:54:47.400Z,97377.66
2019-01-13T21:57:14.267Z,97377.86
2019-01-13T21:59:41.169Z,97366.02
2019-01-13T22:02:08.142Z,97377.16
2019-01-13T22:04:35.597Z,97383.19
2019-01-13T22:07:02.616Z,97385.20
2019-01-13T22:09:29.905Z,97375.84
2019-01-13T22:11:56.784Z,97367.03
2019-01-13T22:14:24.099Z,97369.80
2019-01-13T22:16:51.344Z,97359.86
2019-01-13T22:19:18.235Z,97359.19
2019-01-13T22:21:54.767Z,97347.06
2019-01-13T22:24:45.048Z,97371.11
2019-01-13T22:27:14.998Z,97371.96
2019-01-13T22:29:41.924Z,97370.88
2019-01-13T22:32:09.167Z,97367.38
2019-01-13T22:34:36.411Z,97363.72
2019-01-13T22:37:03.666Z,97378.28
2019-01-13T22:39:30.822Z,97360.94
2019-01-13T22:41:58.185Z,97368.22
2019-01-13T22:44:25.437Z,97368.48
2019-01-13T22:46:52.320Z,97372.60
2019-01-13T22:49:19.613Z,97366.32
2019-01-13T22:51:46.882Z,97368.95
2019-01-13T22:54:14.152Z,97363.77
2019-01-13T22:56:41.124Z,97378.80
2019-01-13T22:59:08.423Z,97379.64
2019-01-13T23:01:35.542Z,97374.13
2019-01-13T23:04:02.421Z,97374.41
2019-01-13T23:06:29.563Z,97372.86
2019-01-13T23:08:56.854Z,97380.80
2019-01-13T23:11:24.110Z,97374.84
2019-01-13T23:13:53.680Z,97382.70
2019-01-13T23:16:20.533Z,97390.70
2019-01-13T23:18:47.670Z,97388.70
2019-01-13T23:21:14.557Z,97384.57
2019-01-13T23:23:41.432Z,97383.58
2019-01-13T23:26:08.318Z,97387.06
2019-01-13T23:28:35.290Z,97388.51
2019-01-13T23:31:02.514Z,97397.56
2019-01-13T23:33:29.661Z,97396.00
2019-01-13T23:36:02.794Z,97414.20
2019-01-13T23:38:25.494Z,97399.03
2019-01-13T23:40:52.410Z,97393.89
2019-01-13T23:43:19.590Z,97393.66
2019-01-13T23:45:46.856Z,97396.67
2019-01-13T23:48:14.114Z,97390.70
2019-01-13T23:50:41.356Z,97394.80
2019-01-13T23:53:08.228Z,97408.13
2019-01-13T23:55:35.138Z,97408.98
2019-01-13T23:58:02.164Z,97406.95
